sensor_id;sensor_type;location;lat;lon;timestamp;P1;durP1;ratioP1;P2;durP2;ratioP2
48951;SDS011;34758;42.148;24.744;2023-06-22T00:01:18;11.68;;;8.80;;
48951;SDS011;34758;42.148;24.744;2023-06-22T00:03:46;10.85;;;9.35;;
48951;SDS011;34758;42.148;24.744;2023-06-22T00:06:13;13.30;;;9.25;;
48951;SDS011;34758;42.148;24.744;2023-06-22T00:08:40;16.60;;;9.18;;
48951;SDS011;34758;42.148;24.744;2023-06-22T00:11:07;11.65;;;9.43;;
48951;SDS011;34758;42.148;24.744;2023-06-22T00:13:38;12.47;;;10.03;;
48951;SDS011;34758;42.148;24.744;2023-06-22T00:16:07;11.18;;;9.73;;
48951;SDS011;34758;42.148;24.744;2023-06-22T00:18:33;13.52;;;10.70;;
48951;SDS011;34758;42.148;24.744;2023-06-22T00:21:03;12.48;;;10.30;;
48951;SDS011;34758;42.148;24.744;2023-06-22T00:23:29;13.32;;;10.55;;
48951;SDS011;34758;42.148;24.744;2023-06-22T00:25:59;13.27;;;10.15;;
48951;SDS011;34758;42.148;24.744;2023-06-22T00:28:26;13.15;;;10.32;;
48951;SDS011;34758;42.148;24.744;2023-06-22T00:30:54;12.15;;;9.57;;
48951;SDS011;34758;42.148;24.744;2023-06-22T00:33:23;11.93;;;9.27;;
48951;SDS011;34758;42.148;24.744;2023-06-22T00:35:50;13.05;;;10.10;;
48951;SDS011;34758;42.148;24.744;2023-06-22T00:38:18;10.20;;;8.90;;
48951;SDS011;34758;42.148;24.744;2023-06-22T00:40:46;10.30;;;9.25;;
48951;SDS011;34758;42.148;24.744;2023-06-22T00:43:13;12.18;;;9.23;;
48951;SDS011;34758;42.148;24.744;2023-06-22T00:45:41;13.13;;;9.82;;
48951;SDS011;34758;42.148;24.744;2023-06-22T00:48:07;11.77;;;9.45;;
48951;SDS011;34758;42.148;24.744;2023-06-22T00:50:37;10.45;;;9.45;;
48951;SDS011;34758;42.148;24.744;2023-06-22T00:53:05;13.85;;;10.15;;
48951;SDS011;34758;42.148;24.744;2023-06-22T00:55:35;11.30;;;10.00;;
48951;SDS011;34758;42.148;24.744;2023-06-22T00:58:05;10.93;;;9.88;;
48951;SDS011;34758;42.148;24.744;2023-06-22T01:00:35;10.82;;;9.18;;
48951;SDS011;34758;42.148;24.744;2023-06-22T01:03:05;14.65;;;9.13;;
48951;SDS011;34758;42.148;24.744;2023-06-22T01:05:34;13.85;;;9.65;;
48951;SDS011;34758;42.148;24.744;2023-06-22T01:08:08;11.77;;;8.85;;
48951;SDS011;34758;42.148;24.744;2023-06-22T01:10:58;11.48;;;9.00;;
48951;SDS011;34758;42.148;24.744;2023-06-22T01:13:32;13.25;;;10.10;;
48951;SDS011;34758;42.148;24.744;2023-06-22T01:16:02;10.88;;;9.68;;
48951;SDS011;34758;42.148;24.744;2023-06-22T01:18:31;11.50;;;9.32;;
48951;SDS011;34758;42.148;24.744;2023-06-22T01:21:01;14.73;;;9.75;;
48951;SDS011;34758;42.148;24.744;2023-06-22T01:23:36;12.68;;;9.70;;
48951;SDS011;34758;42.148;24.744;2023-06-22T01:26:14;12.15;;;10.02;;
48951;SDS011;34758;42.148;24.744;2023-06-22T01:28:47;10.43;;;9.40;;
48951;SDS011;34758;42.148;24.744;2023-06-22T01:31:18;12.13;;;10.02;;
48951;SDS011;34758;42.148;24.744;2023-06-22T01:33:48;13.00;;;10.07;;
48951;SDS011;34758;42.148;24.744;2023-06-22T01:36:21;10.82;;;9.68;;
48951;SDS011;34758;42.148;24.744;2023-06-22T01:38:50;9.63;;;8.55;;
48951;SDS011;34758;42.148;24.744;2023-06-22T01:41:20;9.43;;;8.52;;
48951;SDS011;34758;42.148;24.744;2023-06-22T01:43:57;10.02;;;9.10;;
48951;SDS011;34758;42.148;24.744;2023-06-22T01:46:25;10.18;;;9.10;;
48951;SDS011;34758;42.148;24.744;2023-06-22T01:48:52;9.48;;;8.32;;
48951;SDS011;34758;42.148;24.744;2023-06-22T01:51:19;9.85;;;8.07;;
48951;SDS011;34758;42.148;24.744;2023-06-22T01:53:47;10.10;;;7.60;;
48951;SDS011;34758;42.148;24.744;2023-06-22T01:56:15;8.68;;;7.43;;
48951;SDS011;34758;42.148;24.744;2023-06-22T01:58:46;8.13;;;7.32;;
48951;SDS011;34758;42.148;24.744;2023-06-22T02:01:19;8.55;;;7.65;;
48951;SDS011;34758;42.148;24.744;2023-06-22T02:03:51;8.10;;;7.38;;
48951;SDS011;34758;42.148;24.744;2023-06-22T02:06:23;8.60;;;7.68;;
48951;SDS011;34758;42.148;24.744;2023-06-22T02:08:56;8.70;;;7.80;;
48951;SDS011;34758;42.148;24.744;2023-06-22T02:11:25;8.95;;;8.15;;
48951;SDS011;34758;42.148;24.744;2023-06-22T02:13:53;9.27;;;8.32;;
48951;SDS011;34758;42.148;24.744;2023-06-22T02:16:24;9.48;;;8.57;;
48951;SDS011;34758;42.148;24.744;2023-06-22T02:18:55;9.60;;;8.60;;
48951;SDS011;34758;42.148;24.744;2023-06-22T02:21:29;9.70;;;8.70;;
48951;SDS011;34758;42.148;24.744;2023-06-22T02:23:58;9.52;;;8.27;;
48951;SDS011;34758;42.148;24.744;2023-06-22T02:26:25;12.10;;;9.45;;
48951;SDS011;34758;42.148;24.744;2023-06-22T02:28:53;10.77;;;8.75;;
48951;SDS011;34758;42.148;24.744;2023-06-22T02:31:20;10.02;;;8.77;;
48951;SDS011;34758;42.148;24.744;2023-06-22T02:33:49;10.40;;;8.32;;
48951;SDS011;34758;42.148;24.744;2023-06-22T02:36:16;9.50;;;8.57;;
48951;SDS011;34758;42.148;24.744;2023-06-22T02:38:51;12.15;;;8.65;;
48951;SDS011;34758;42.148;24.744;2023-06-22T02:41:18;11.40;;;9.25;;
48951;SDS011;34758;42.148;24.744;2023-06-22T02:43:46;12.07;;;9.32;;
48951;SDS011;34758;42.148;24.744;2023-06-22T02:46:13;11.07;;;9.25;;
48951;SDS011;34758;42.148;24.744;2023-06-22T02:48:41;10.52;;;9.15;;
48951;SDS011;34758;42.148;24.744;2023-06-22T02:51:10;11.30;;;9.68;;
48951;SDS011;34758;42.148;24.744;2023-06-22T02:53:36;10.15;;;9.25;;
48951;SDS011;34758;42.148;24.744;2023-06-22T02:56:03;10.13;;;9.23;;
48951;SDS011;34758;42.148;24.744;2023-06-22T02:58:31;9.93;;;8.93;;
48951;SDS011;34758;42.148;24.744;2023-06-22T03:01:03;12.45;;;9.13;;
48951;SDS011;34758;42.148;24.744;2023-06-22T03:03:32;15.55;;;10.07;;
48951;SDS011;34758;42.148;24.744;2023-06-22T03:05:59;9.55;;;8.55;;
48951;SDS011;34758;42.148;24.744;2023-06-22T03:08:28;10.35;;;9.30;;
48951;SDS011;34758;42.148;24.744;2023-06-22T03:10:57;9.82;;;8.00;;
48951;SDS011;34758;42.148;24.744;2023-06-22T03:13:27;8.70;;;7.78;;
48951;SDS011;34758;42.148;24.744;2023-06-22T03:15:55;8.38;;;7.57;;
48951;SDS011;34758;42.148;24.744;2023-06-22T03:18:21;7.00;;;6.30;;
48951;SDS011;34758;42.148;24.744;2023-06-22T03:20:48;10.40;;;7.55;;
48951;SDS011;34758;42.148;24.744;2023-06-22T03:23:16;9.98;;;6.55;;
48951;SDS011;34758;42.148;24.744;2023-06-22T03:25:44;8.82;;;7.55;;
48951;SDS011;34758;42.148;24.744;2023-06-22T03:28:13;8.32;;;6.25;;
48951;SDS011;34758;42.148;24.744;2023-06-22T03:30:40;6.05;;;5.50;;
48951;SDS011;34758;42.148;24.744;2023-06-22T03:33:06;8.10;;;6.53;;
48951;SDS011;34758;42.148;24.744;2023-06-22T03:35:33;7.75;;;6.25;;
48951;SDS011;34758;42.148;24.744;2023-06-22T03:38:01;7.90;;;6.43;;
48951;SDS011;34758;42.148;24.744;2023-06-22T03:40:27;7.90;;;6.63;;
48951;SDS011;34758;42.148;24.744;2023-06-22T03:42:56;9.88;;;7.97;;
48951;SDS011;34758;42.148;24.744;2023-06-22T03:45:24;10.05;;;7.80;;
48951;SDS011;34758;42.148;24.744;2023-06-22T03:47:51;10.77;;;7.88;;
48951;SDS011;34758;42.148;24.744;2023-06-22T03:50:18;9.70;;;7.68;;
48951;SDS011;34758;42.148;24.744;2023-06-22T03:52:46;8.10;;;7.25;;
48951;SDS011;34758;42.148;24.744;2023-06-22T03:55:12;8.75;;;7.53;;
48951;SDS011;34758;42.148;24.744;2023-06-22T03:57:40;9.90;;;7.93;;
48951;SDS011;34758;42.148;24.744;2023-06-22T04:00:09;10.90;;;8.40;;
48951;SDS011;34758;42.148;24.744;2023-06-22T04:02:38;9.83;;;7.60;;
48951;SDS011;34758;42.148;24.744;2023-06-22T04:05:05;9.65;;;7.82;;
48951;SDS011;34758;42.148;24.744;2023-06-22T04:07:34;9.93;;;8.30;;
48951;SDS011;34758;42.148;24.744;2023-06-22T04:10:02;8.88;;;7.32;;
48951;SDS011;34758;42.148;24.744;2023-06-22T04:12:30;11.27;;;7.75;;
48951;SDS011;34758;42.148;24.744;2023-06-22T04:14:58;8.00;;;7.28;;
48951;SDS011;34758;42.148;24.744;2023-06-22T04:17:28;8.10;;;7.35;;
48951;SDS011;34758;42.148;24.744;2023-06-22T04:19:55;8.43;;;7.60;;
48951;SDS011;34758;42.148;24.744;2023-06-22T04:22:22;8.25;;;6.95;;
48951;SDS011;34758;42.148;24.744;2023-06-22T04:24:49;8.15;;;7.45;;
48951;SDS011;34758;42.148;24.744;2023-06-22T04:30:09;8.20;;;7.18;;
48951;SDS011;34758;42.148;24.744;2023-06-22T04:32:40;8.65;;;7.43;;
48951;SDS011;34758;42.148;24.744;2023-06-22T04:35:08;10.27;;;7.35;;
48951;SDS011;34758;42.148;24.744;2023-06-22T04:37:35;8.77;;;7.10;;
48951;SDS011;34758;42.148;24.744;2023-06-22T04:40:02;11.48;;;7.57;;
48951;SDS011;34758;42.148;24.744;2023-06-22T04:42:33;8.27;;;6.75;;
48951;SDS011;34758;42.148;24.744;2023-06-22T04:45:00;8.43;;;7.32;;
48951;SDS011;34758;42.148;24.744;2023-06-22T04:47:28;7.47;;;6.70;;
48951;SDS011;34758;42.148;24.744;2023-06-22T04:49:56;16.60;;;7.60;;
48951;SDS011;34758;42.148;24.744;2023-06-22T04:52:24;8.43;;;6.90;;
48951;SDS011;34758;42.148;24.744;2023-06-22T04:54:51;8.00;;;7.05;;
48951;SDS011;34758;42.148;24.744;2023-06-22T04:57:21;8.25;;;6.95;;
48951;SDS011;34758;42.148;24.744;2023-06-22T04:59:58;10.88;;;7.40;;
48951;SDS011;34758;42.148;24.744;2023-06-22T05:02:42;10.40;;;7.38;;
48951;SDS011;34758;42.148;24.744;2023-06-22T05:05:11;9.63;;;7.68;;
48951;SDS011;34758;42.148;24.744;2023-06-22T05:07:40;12.10;;;7.75;;
48951;SDS011;34758;42.148;24.744;2023-06-22T05:10:09;9.32;;;7.88;;
48951;SDS011;34758;42.148;24.744;2023-06-22T05:12:39;12.18;;;8.43;;
48951;SDS011;34758;42.148;24.744;2023-06-22T05:15:06;10.98;;;7.68;;
48951;SDS011;34758;42.148;24.744;2023-06-22T05:17:34;11.20;;;7.95;;
48951;SDS011;34758;42.148;24.744;2023-06-22T05:20:02;10.20;;;8.82;;
48951;SDS011;34758;42.148;24.744;2023-06-22T05:22:33;8.38;;;7.53;;
48951;SDS011;34758;42.148;24.744;2023-06-22T05:25:00;11.82;;;7.95;;
48951;SDS011;34758;42.148;24.744;2023-06-22T05:27:27;10.23;;;8.18;;
48951;SDS011;34758;42.148;24.744;2023-06-22T05:29:55;11.27;;;7.97;;
48951;SDS011;34758;42.148;24.744;2023-06-22T05:32:24;15.40;;;8.80;;
48951;SDS011;34758;42.148;24.744;2023-06-22T05:34:51;8.55;;;7.75;;
48951;SDS011;34758;42.148;24.744;2023-06-22T05:37:19;8.80;;;7.03;;
48951;SDS011;34758;42.148;24.744;2023-06-22T05:39:51;11.18;;;7.05;;
48951;SDS011;34758;42.148;24.744;2023-06-22T05:42:19;8.48;;;6.80;;
48951;SDS011;34758;42.148;24.744;2023-06-22T05:44:46;8.23;;;6.68;;
48951;SDS011;34758;42.148;24.744;2023-06-22T05:47:13;8.35;;;6.65;;
48951;SDS011;34758;42.148;24.744;2023-06-22T05:49:40;8.75;;;6.72;;
48951;SDS011;34758;42.148;24.744;2023-06-22T05:52:07;7.93;;;7.07;;
48951;SDS011;34758;42.148;24.744;2023-06-22T05:54:34;7.30;;;6.60;;
48951;SDS011;34758;42.148;24.744;2023-06-22T05:57:02;9.20;;;7.32;;
48951;SDS011;34758;42.148;24.744;2023-06-22T05:59:30;11.00;;;7.38;;
48951;SDS011;34758;42.148;24.744;2023-06-22T06:01:57;9.75;;;7.13;;
48951;SDS011;34758;42.148;24.744;2023-06-22T06:04:27;10.17;;;8.70;;
48951;SDS011;34758;42.148;24.744;2023-06-22T06:06:54;7.43;;;6.68;;
48951;SDS011;34758;42.148;24.744;2023-06-22T06:09:21;7.88;;;7.05;;
48951;SDS011;34758;42.148;24.744;2023-06-22T06:11:48;8.55;;;6.60;;
48951;SDS011;34758;42.148;24.744;2023-06-22T06:14:16;12.73;;;10.18;;
48951;SDS011;34758;42.148;24.744;2023-06-22T06:16:45;8.02;;;7.18;;
48951;SDS011;34758;42.148;24.744;2023-06-22T06:19:13;7.03;;;6.32;;
48951;SDS011;34758;42.148;24.744;2023-06-22T06:21:41;7.25;;;6.47;;
48951;SDS011;34758;42.148;24.744;2023-06-22T06:24:08;7.15;;;6.47;;
48951;SDS011;34758;42.148;24.744;2023-06-22T06:26:35;7.53;;;6.28;;
48951;SDS011;34758;42.148;24.744;2023-06-22T06:29:03;8.00;;;7.20;;
48951;SDS011;34758;42.148;24.744;2023-06-22T06:31:32;7.55;;;6.78;;
48951;SDS011;34758;42.148;24.744;2023-06-22T06:34:00;6.82;;;6.30;;
48951;SDS011;34758;42.148;24.744;2023-06-22T06:36:28;9.77;;;8.82;;
48951;SDS011;34758;42.148;24.744;2023-06-22T06:38:55;11.50;;;10.30;;
48951;SDS011;34758;42.148;24.744;2023-06-22T06:41:22;9.57;;;7.55;;
48951;SDS011;34758;42.148;24.744;2023-06-22T06:43:50;8.80;;;6.65;;
48951;SDS011;34758;42.148;24.744;2023-06-22T06:46:17;7.90;;;6.38;;
48951;SDS011;34758;42.148;24.744;2023-06-22T06:48:47;6.57;;;5.97;;
48951;SDS011;34758;42.148;24.744;2023-06-22T06:51:14;7.65;;;6.72;;
48951;SDS011;34758;42.148;24.744;2023-06-22T06:53:41;9.23;;;7.72;;
48951;SDS011;34758;42.148;24.744;2023-06-22T06:56:09;8.10;;;7.25;;
48951;SDS011;34758;42.148;24.744;2023-06-22T06:58:38;7.20;;;6.20;;
48951;SDS011;34758;42.148;24.744;2023-06-22T07:01:06;7.68;;;6.97;;
48951;SDS011;34758;42.148;24.744;2023-06-22T07:03:36;7.40;;;6.70;;
48951;SDS011;34758;42.148;24.744;2023-06-22T07:06:07;8.20;;;7.30;;
48951;SDS011;34758;42.148;24.744;2023-06-22T07:08:37;9.23;;;7.13;;
48951;SDS011;34758;42.148;24.744;2023-06-22T07:11:05;9.35;;;6.75;;
48951;SDS011;34758;42.148;24.744;2023-06-22T07:13:31;7.60;;;6.70;;
48951;SDS011;34758;42.148;24.744;2023-06-22T07:16:00;7.15;;;6.45;;
48951;SDS011;34758;42.148;24.744;2023-06-22T07:18:27;9.02;;;6.75;;
48951;SDS011;34758;42.148;24.744;2023-06-22T07:20:53;7.22;;;6.47;;
48951;SDS011;34758;42.148;24.744;2023-06-22T07:23:23;8.15;;;6.20;;
48951;SDS011;34758;42.148;24.744;2023-06-22T07:25:51;6.93;;;6.32;;
48951;SDS011;34758;42.148;24.744;2023-06-22T07:28:20;6.35;;;5.75;;
48951;SDS011;34758;42.148;24.744;2023-06-22T07:30:48;7.57;;;6.90;;
48951;SDS011;34758;42.148;24.744;2023-06-22T07:33:16;9.25;;;7.55;;
48951;SDS011;34758;42.148;24.744;2023-06-22T07:35:43;7.13;;;6.43;;
48951;SDS011;34758;42.148;24.744;2023-06-22T07:38:13;8.77;;;7.18;;
48951;SDS011;34758;42.148;24.744;2023-06-22T07:40:43;7.15;;;6.10;;
48951;SDS011;34758;42.148;24.744;2023-06-22T07:43:11;8.05;;;7.25;;
48951;SDS011;34758;42.148;24.744;2023-06-22T07:45:38;8.23;;;6.45;;
48951;SDS011;34758;42.148;24.744;2023-06-22T07:48:07;6.25;;;5.63;;
48951;SDS011;34758;42.148;24.744;2023-06-22T07:50:34;5.90;;;5.38;;
48951;SDS011;34758;42.148;24.744;2023-06-22T07:53:01;8.27;;;5.85;;
48951;SDS011;34758;42.148;24.744;2023-06-22T07:55:29;8.52;;;6.00;;
48951;SDS011;34758;42.148;24.744;2023-06-22T07:57:57;8.77;;;5.95;;
48951;SDS011;34758;42.148;24.744;2023-06-22T08:00:24;6.25;;;5.53;;
48951;SDS011;34758;42.148;24.744;2023-06-22T08:02:54;6.72;;;5.43;;
48951;SDS011;34758;42.148;24.744;2023-06-22T08:05:21;9.95;;;5.95;;
48951;SDS011;34758;42.148;24.744;2023-06-22T08:07:48;8.25;;;6.13;;
48951;SDS011;34758;42.148;24.744;2023-06-22T08:10:17;5.68;;;5.03;;
48951;SDS011;34758;42.148;24.744;2023-06-22T08:12:44;5.90;;;5.28;;
48951;SDS011;34758;42.148;24.744;2023-06-22T08:15:12;6.65;;;5.05;;
48951;SDS011;34758;42.148;24.744;2023-06-22T08:17:39;6.75;;;5.35;;
48951;SDS011;34758;42.148;24.744;2023-06-22T08:20:07;7.20;;;6.50;;
48951;SDS011;34758;42.148;24.744;2023-06-22T08:22:37;7.38;;;5.57;;
48951;SDS011;34758;42.148;24.744;2023-06-22T08:25:04;7.97;;;5.80;;
48951;SDS011;34758;42.148;24.744;2023-06-22T08:27:33;6.03;;;5.40;;
48951;SDS011;34758;42.148;24.744;2023-06-22T08:30:02;5.32;;;4.93;;
48951;SDS011;34758;42.148;24.744;2023-06-22T08:32:31;7.50;;;5.43;;
48951;SDS011;34758;42.148;24.744;2023-06-22T08:34:58;6.18;;;5.57;;
48951;SDS011;34758;42.148;24.744;2023-06-22T08:37:26;7.63;;;5.25;;
48951;SDS011;34758;42.148;24.744;2023-06-22T08:39:56;9.40;;;5.15;;
48951;SDS011;34758;42.148;24.744;2023-06-22T08:42:23;9.38;;;5.43;;
48951;SDS011;34758;42.148;24.744;2023-06-22T08:44:51;5.97;;;5.47;;
48951;SDS011;34758;42.148;24.744;2023-06-22T08:47:18;6.05;;;4.93;;
48951;SDS011;34758;42.148;24.744;2023-06-22T08:49:48;5.90;;;5.40;;
48951;SDS011;34758;42.148;24.744;2023-06-22T08:52:14;8.88;;;5.25;;
48951;SDS011;34758;42.148;24.744;2023-06-22T08:54:45;7.87;;;5.97;;
48951;SDS011;34758;42.148;24.744;2023-06-22T08:57:12;6.07;;;5.22;;
48951;SDS011;34758;42.148;24.744;2023-06-22T08:59:39;6.55;;;5.95;;
48951;SDS011;34758;42.148;24.744;2023-06-22T09:02:06;5.88;;;5.15;;
48951;SDS011;34758;42.148;24.744;2023-06-22T09:04:34;6.53;;;5.93;;
48951;SDS011;34758;42.148;24.744;2023-06-22T09:07:03;6.20;;;5.60;;
48951;SDS011;34758;42.148;24.744;2023-06-22T09:09:30;6.00;;;5.40;;
48951;SDS011;34758;42.148;24.744;2023-06-22T09:11:57;5.80;;;5.30;;
48951;SDS011;34758;42.148;24.744;2023-06-22T09:14:24;5.85;;;5.03;;
48951;SDS011;34758;42.148;24.744;2023-06-22T09:16:51;5.22;;;4.72;;
48951;SDS011;34758;42.148;24.744;2023-06-22T09:19:19;6.57;;;5.10;;
48951;SDS011;34758;42.148;24.744;2023-06-22T09:21:47;6.43;;;5.88;;
48951;SDS011;34758;42.148;24.744;2023-06-22T09:24:16;5.72;;;5.32;;
48951;SDS011;34758;42.148;24.744;2023-06-22T09:26:43;6.57;;;5.05;;
48951;SDS011;34758;42.148;24.744;2023-06-22T09:29:10;7.85;;;5.55;;
48951;SDS011;34758;42.148;24.744;2023-06-22T09:31:37;6.63;;;6.00;;
48951;SDS011;34758;42.148;24.744;2023-06-22T09:34:04;6.57;;;5.95;;
48951;SDS011;34758;42.148;24.744;2023-06-22T09:36:31;6.00;;;5.50;;
48951;SDS011;34758;42.148;24.744;2023-06-22T09:38:58;6.53;;;5.65;;
48951;SDS011;34758;42.148;24.744;2023-06-22T09:41:32;7.53;;;5.15;;
48951;SDS011;34758;42.148;24.744;2023-06-22T09:43:59;5.60;;;4.95;;
48951;SDS011;34758;42.148;24.744;2023-06-22T09:46:26;5.63;;;4.95;;
48951;SDS011;34758;42.148;24.744;2023-06-22T09:48:54;5.47;;;4.82;;
48951;SDS011;34758;42.148;24.744;2023-06-22T09:51:21;5.82;;;5.22;;
48951;SDS011;34758;42.148;24.744;2023-06-22T09:53:49;6.20;;;5.70;;
48951;SDS011;34758;42.148;24.744;2023-06-22T09:56:19;5.57;;;5.07;;
48951;SDS011;34758;42.148;24.744;2023-06-22T09:58:47;5.50;;;4.63;;
48951;SDS011;34758;42.148;24.744;2023-06-22T10:01:17;5.30;;;4.90;;
48951;SDS011;34758;42.148;24.744;2023-06-22T10:03:47;4.80;;;4.50;;
48951;SDS011;34758;42.148;24.744;2023-06-22T10:06:14;4.93;;;4.45;;
48951;SDS011;34758;42.148;24.744;2023-06-22T10:08:42;4.80;;;4.40;;
48951;SDS011;34758;42.148;24.744;2023-06-22T10:11:08;5.03;;;4.63;;
48951;SDS011;34758;42.148;24.744;2023-06-22T10:13:36;5.47;;;4.97;;
48951;SDS011;34758;42.148;24.744;2023-06-22T10:16:06;5.53;;;5.03;;
48951;SDS011;34758;42.148;24.744;2023-06-22T10:18:34;5.50;;;5.10;;
48951;SDS011;34758;42.148;24.744;2023-06-22T10:21:01;5.88;;;5.38;;
48951;SDS011;34758;42.148;24.744;2023-06-22T10:23:28;5.22;;;4.82;;
48951;SDS011;34758;42.148;24.744;2023-06-22T10:25:55;6.82;;;5.13;;
48951;SDS011;34758;42.148;24.744;2023-06-22T10:28:23;5.82;;;5.20;;
48951;SDS011;34758;42.148;24.744;2023-06-22T10:30:50;5.10;;;4.60;;
48951;SDS011;34758;42.148;24.744;2023-06-22T10:33:18;5.20;;;4.80;;
48951;SDS011;34758;42.148;24.744;2023-06-22T10:35:45;6.15;;;5.65;;
48951;SDS011;34758;42.148;24.744;2023-06-22T10:38:12;5.45;;;5.05;;
48951;SDS011;34758;42.148;24.744;2023-06-22T10:40:39;5.20;;;4.70;;
48951;SDS011;34758;42.148;24.744;2023-06-22T10:43:07;5.93;;;5.30;;
48951;SDS011;34758;42.148;24.744;2023-06-22T10:45:34;6.57;;;5.47;;
48951;SDS011;34758;42.148;24.744;2023-06-22T10:48:05;6.07;;;5.45;;
48951;SDS011;34758;42.148;24.744;2023-06-22T10:50:33;5.63;;;5.18;;
48951;SDS011;34758;42.148;24.744;2023-06-22T10:53:00;6.95;;;6.10;;
48951;SDS011;34758;42.148;24.744;2023-06-22T10:55:27;6.25;;;5.22;;
48951;SDS011;34758;42.148;24.744;2023-06-22T10:57:54;8.07;;;5.80;;
48951;SDS011;34758;42.148;24.744;2023-06-22T11:00:21;5.75;;;5.20;;
48951;SDS011;34758;42.148;24.744;2023-06-22T11:02:50;7.05;;;5.32;;
48951;SDS011;34758;42.148;24.744;2023-06-22T11:05:20;6.60;;;6.10;;
48951;SDS011;34758;42.148;24.744;2023-06-22T11:07:49;6.53;;;5.95;;
48951;SDS011;34758;42.148;24.744;2023-06-22T11:10:16;6.13;;;5.63;;
48951;SDS011;34758;42.148;24.744;2023-06-22T11:12:43;6.10;;;5.55;;
48951;SDS011;34758;42.148;24.744;2023-06-22T11:15:12;5.55;;;5.05;;
48951;SDS011;34758;42.148;24.744;2023-06-22T11:17:39;5.70;;;5.20;;
48951;SDS011;34758;42.148;24.744;2023-06-22T11:20:07;5.57;;;5.18;;
48951;SDS011;34758;42.148;24.744;2023-06-22T11:22:36;6.35;;;5.75;;
48951;SDS011;34758;42.148;24.744;2023-06-22T11:25:06;6.35;;;4.93;;
48951;SDS011;34758;42.148;24.744;2023-06-22T11:27:34;7.05;;;6.35;;
48951;SDS011;34758;42.148;24.744;2023-06-22T11:30:02;6.35;;;5.75;;
48951;SDS011;34758;42.148;24.744;2023-06-22T11:32:30;5.20;;;4.80;;
48951;SDS011;34758;42.148;24.744;2023-06-22T11:34:58;6.10;;;5.60;;
48951;SDS011;34758;42.148;24.744;2023-06-22T11:37:25;6.05;;;5.55;;
48951;SDS011;34758;42.148;24.744;2023-06-22T11:39:52;5.50;;;5.10;;
48951;SDS011;34758;42.148;24.744;2023-06-22T11:42:21;5.97;;;5.57;;
48951;SDS011;34758;42.148;24.744;2023-06-22T11:44:50;5.70;;;5.30;;
48951;SDS011;34758;42.148;24.744;2023-06-22T11:47:19;5.07;;;4.68;;
48951;SDS011;34758;42.148;24.744;2023-06-22T11:49:46;5.93;;;5.32;;
48951;SDS011;34758;42.148;24.744;2023-06-22T11:52:13;5.50;;;5.00;;
48951;SDS011;34758;42.148;24.744;2023-06-22T11:54:40;5.32;;;4.95;;
48951;SDS011;34758;42.148;24.744;2023-06-22T11:57:07;5.68;;;5.28;;
48951;SDS011;34758;42.148;24.744;2023-06-22T11:59:36;6.03;;;5.53;;
48951;SDS011;34758;42.148;24.744;2023-06-22T12:02:03;6.35;;;5.85;;
48951;SDS011;34758;42.148;24.744;2023-06-22T12:04:32;5.47;;;5.05;;
48951;SDS011;34758;42.148;24.744;2023-06-22T12:06:59;6.88;;;5.40;;
48951;SDS011;34758;42.148;24.744;2023-06-22T12:09:26;6.45;;;5.85;;
48951;SDS011;34758;42.148;24.744;2023-06-22T12:11:53;6.32;;;5.82;;
48951;SDS011;34758;42.148;24.744;2023-06-22T12:14:21;6.05;;;5.43;;
48951;SDS011;34758;42.148;24.744;2023-06-22T12:16:49;6.15;;;5.30;;
48951;SDS011;34758;42.148;24.744;2023-06-22T12:19:16;5.50;;;5.03;;
48951;SDS011;34758;42.148;24.744;2023-06-22T12:21:43;6.03;;;5.50;;
48951;SDS011;34758;42.148;24.744;2023-06-22T12:24:12;5.43;;;4.93;;
48951;SDS011;34758;42.148;24.744;2023-06-22T12:26:38;5.70;;;5.20;;
48951;SDS011;34758;42.148;24.744;2023-06-22T12:29:06;5.47;;;5.10;;
48951;SDS011;34758;42.148;24.744;2023-06-22T12:31:33;6.18;;;5.57;;
48951;SDS011;34758;42.148;24.744;2023-06-22T12:34:01;6.45;;;5.85;;
48951;SDS011;34758;42.148;24.744;2023-06-22T12:36:28;6.07;;;5.50;;
48951;SDS011;34758;42.148;24.744;2023-06-22T12:38:58;5.53;;;5.00;;
48951;SDS011;34758;42.148;24.744;2023-06-22T12:41:24;6.18;;;5.68;;
48951;SDS011;34758;42.148;24.744;2023-06-22T12:43:51;5.80;;;5.30;;
48951;SDS011;34758;42.148;24.744;2023-06-22T12:46:18;5.38;;;4.88;;
48951;SDS011;34758;42.148;24.744;2023-06-22T12:48:45;6.15;;;5.55;;
48951;SDS011;34758;42.148;24.744;2023-06-22T12:51:21;6.15;;;5.65;;
48951;SDS011;34758;42.148;24.744;2023-06-22T12:53:48;5.93;;;5.47;;
48951;SDS011;34758;42.148;24.744;2023-06-22T12:56:16;6.25;;;5.65;;
48951;SDS011;34758;42.148;24.744;2023-06-22T12:58:44;6.05;;;5.45;;
48951;SDS011;34758;42.148;24.744;2023-06-22T13:01:14;5.45;;;5.05;;
48951;SDS011;34758;42.148;24.744;2023-06-22T13:03:43;5.82;;;5.25;;
48951;SDS011;34758;42.148;24.744;2023-06-22T13:06:10;6.13;;;5.53;;
48951;SDS011;34758;42.148;24.744;2023-06-22T13:08:38;5.82;;;5.32;;
48951;SDS011;34758;42.148;24.744;2023-06-22T13:11:05;6.45;;;5.95;;
48951;SDS011;34758;42.148;24.744;2023-06-22T13:13:32;5.93;;;5.28;;
48951;SDS011;34758;42.148;24.744;2023-06-22T13:16:00;6.40;;;5.80;;
48951;SDS011;34758;42.148;24.744;2023-06-22T13:18:27;6.07;;;5.57;;
48951;SDS011;34758;42.148;24.744;2023-06-22T13:20:54;6.07;;;5.45;;
48951;SDS011;34758;42.148;24.744;2023-06-22T13:23:23;5.97;;;5.47;;
48951;SDS011;34758;42.148;24.744;2023-06-22T13:25:53;6.57;;;5.55;;
48951;SDS011;34758;42.148;24.744;2023-06-22T13:28:20;5.75;;;5.25;;
48951;SDS011;34758;42.148;24.744;2023-06-22T13:30:47;6.18;;;5.68;;
48951;SDS011;34758;42.148;24.744;2023-06-22T13:33:15;6.03;;;5.43;;
48951;SDS011;34758;42.148;24.744;2023-06-22T13:35:42;5.95;;;5.45;;
48951;SDS011;34758;42.148;24.744;2023-06-22T13:38:12;6.63;;;5.95;;
48951;SDS011;34758;42.148;24.744;2023-06-22T13:40:40;6.13;;;5.70;;
48951;SDS011;34758;42.148;24.744;2023-06-22T13:43:09;10.57;;;5.40;;
48951;SDS011;34758;42.148;24.744;2023-06-22T13:45:36;6.22;;;5.63;;
48951;SDS011;34758;42.148;24.744;2023-06-22T13:48:04;5.80;;;5.40;;
48951;SDS011;34758;42.148;24.744;2023-06-22T13:50:31;6.82;;;5.38;;
48951;SDS011;34758;42.148;24.744;2023-06-22T13:52:58;7.93;;;6.18;;
48951;SDS011;34758;42.148;24.744;2023-06-22T13:55:25;7.32;;;5.63;;
48951;SDS011;34758;42.148;24.744;2023-06-22T13:57:52;6.20;;;5.57;;
48951;SDS011;34758;42.148;24.744;2023-06-22T14:00:21;6.25;;;5.43;;
48951;SDS011;34758;42.148;24.744;2023-06-22T14:02:48;5.82;;;5.32;;
48951;SDS011;34758;42.148;24.744;2023-06-22T14:05:16;7.38;;;5.50;;
48951;SDS011;34758;42.148;24.744;2023-06-22T14:07:43;6.18;;;5.68;;
48951;SDS011;34758;42.148;24.744;2023-06-22T14:10:10;6.95;;;6.28;;
48951;SDS011;34758;42.148;24.744;2023-06-22T14:12:38;8.02;;;5.57;;
48951;SDS011;34758;42.148;24.744;2023-06-22T14:15:05;6.15;;;5.53;;
48951;SDS011;34758;42.148;24.744;2023-06-22T14:17:34;5.95;;;5.53;;
48951;SDS011;34758;42.148;24.744;2023-06-22T14:20:02;6.70;;;6.10;;
48951;SDS011;34758;42.148;24.744;2023-06-22T14:22:31;6.97;;;6.22;;
48951;SDS011;34758;42.148;24.744;2023-06-22T14:25:00;6.38;;;5.78;;
48951;SDS011;34758;42.148;24.744;2023-06-22T14:27:28;6.70;;;6.10;;
48951;SDS011;34758;42.148;24.744;2023-06-22T14:29:56;6.10;;;5.47;;
48951;SDS011;34758;42.148;24.744;2023-06-22T14:32:23;6.25;;;5.63;;
48951;SDS011;34758;42.148;24.744;2023-06-22T14:34:52;6.38;;;5.80;;
48951;SDS011;34758;42.148;24.744;2023-06-22T14:37:19;5.90;;;5.40;;
48951;SDS011;34758;42.148;24.744;2023-06-22T14:39:46;6.40;;;5.80;;